Airfield :
LOGIN :

Register | Disclaimer

   EN    FR    IT 

 










Legend :    VFR   Marginal VFR   IFR   Intensive IFR   Very Intensive IFR
Visi :
Ceiling :
>= 8 km
>= 3000ft
5 to 8 km
1000 to 3000 ft
1500m to 5 km
500 to 1000 ft
800 to 1500m
200 to 500 ft
< 800m
< 200 ft
Symbols :   Thunderstorms  Fog  Heavy snow  Heavy precipitations  Wind > 20 kt
SIGMETs :     Misc.  Thunderstorms  Icing  Turbulence  Mountain Waves  Volcanic Ashes






- Airport Elevation : 1411 ft
- IATA code : ZHI


LSZG - Grenchen

CURRENT METAR :
  • 070720Z VRB01KT CAVOK 18/09 Q1024 NOSIG

EXPIRED METARs :
  • 070650Z 00000KT CAVOK 18/09 Q1024 NOSIG
  • 070620Z 13002KT 9999 FEW065 16/10 Q1024 NOSIG
  • 070550Z VRB01KT 9999 FEW065 15/11 Q1024 NOSIG
  • 070520Z 00000KT 9999 FEW065 14/12 Q1023 NOSIG
  • 070450Z 09001KT 9999 FEW065 12/10 Q1023 NOSIG

TAF TAF LSZG
Valid from the 07 at 06:00 until the 07 at 15:00 UTC


070525Z 0706/0715 VRB01KT CAVOK
TEMPO 0711/0715 31010KT 9999 FEW060
ATIS : +41 32 396 96 33



MET'MAP, your aeronautical weather chart ! - Copyright ORBIFLY December 2007 - Disclaimer

ORBIFLY MET'MAP TEAM :

Programming & Development : Alexandra Zaïnal
Original concept : Baudouin d'Aumeries
Technical & hardware support : Manuel Goepfert
Assistance : Marc-Olivier Méhu




SOURCES & CREDITS :

   NOAA